Time;durP1;ratioP1;P1;durP2;ratioP2;P2;SDS_P1;SDS_P2;PMS_P1;PMS_P2;Temp;Humidity;BMP_temperature;BMP_pressure;BME280_temperature;BME280_humidity;BME280_pressure;Samples;Min_cycle;Max_cycle;Signal;HPM_P1;HPM_P2
2022/08/06 00:02:20;;;;;;;1.00;0.80;;;26.70;70.40;;;;;;4994629;28;20444;-88
2022/08/06 00:04:48;;;;;;;1.00;0.80;;;26.70;70.40;;;;;;4994620;28;20852;-88
2022/08/06 00:07:15;;;;;;;1.00;0.80;;;26.70;70.40;;;;;;4994589;28;20472;-88
2022/08/06 00:09:42;;;;;;;0.97;0.77;;;26.70;70.40;;;;;;4994429;28;20472;-86
2022/08/06 00:12:10;;;;;;;1.40;0.83;;;26.70;70.40;;;;;;4994363;28;20575;-86
2022/08/06 00:14:36;;;;;;;0.90;0.70;;;26.70;70.00;;;;;;4994870;28;20499;-87
2022/08/06 00:17:04;;;;;;;2.30;0.70;;;26.70;70.60;;;;;;4994260;28;20995;-85
2022/08/06 00:19:31;;;;;;;1.10;0.77;;;26.70;71.20;;;;;;4994582;28;20891;-84
2022/08/06 00:21:59;;;;;;;1.00;0.80;;;26.70;71.40;;;;;;4994614;28;20848;-84
2022/08/06 00:24:26;;;;;;;1.20;0.80;;;26.70;70.80;;;;;;4994679;28;20551;-84
2022/08/06 00:26:53;;;;;;;1.20;0.90;;;26.70;71.00;;;;;;4995368;28;20544;-85
2022/08/06 00:29:20;;;;;;;1.00;0.70;;;26.70;70.70;;;;;;4994346;28;20555;-84
2022/08/06 00:31:47;;;;;;;1.17;0.90;;;26.70;70.90;;;;;;4994173;28;20475;-84
2022/08/06 00:34:14;;;;;;;1.00;0.80;;;26.70;71.00;;;;;;4994444;28;20479;-84
2022/08/06 00:36:41;;;;;;;0.90;0.77;;;26.70;71.00;;;;;;4994300;28;20523;-85
2022/08/06 00:39:09;;;;;;;1.00;0.80;;;26.70;70.90;;;;;;4994166;28;20527;-85
2022/08/06 00:41:37;;;;;;;1.00;0.80;;;26.70;71.00;;;;;;4994270;28;20448;-86
2022/08/06 00:44:05;;;;;;;0.90;0.80;;;26.70;71.10;;;;;;4994133;28;20472;-85
2022/08/06 00:46:31;;;;;;;1.00;0.83;;;26.70;71.20;;;;;;4994070;28;20444;-84
2022/08/06 00:48:58;;;;;;;1.00;0.87;;;26.70;71.20;;;;;;4994394;28;20532;-85
2022/08/06 00:51:25;;;;;;;1.80;0.90;;;26.70;71.10;;;;;;4993990;28;20452;-84
2022/08/06 00:53:53;;;;;;;1.00;0.80;;;26.70;71.00;;;;;;4994200;28;21011;-85
2022/08/06 00:56:21;;;;;;;0.90;0.70;;;26.70;71.20;;;;;;4993977;28;20444;-85
2022/08/06 00:58:48;;;;;;;1.70;0.87;;;26.70;70.90;;;;;;4993914;28;20460;-85
2022/08/06 01:01:15;;;;;;;1.00;0.80;;;26.70;70.90;;;;;;4993935;28;20535;-84
2022/08/06 01:03:42;;;;;;;1.10;0.97;;;26.70;71.20;;;;;;4993959;28;20440;-85
2022/08/06 01:06:09;;;;;;;1.00;0.83;;;26.70;71.00;;;;;;4993898;28;20539;-86
2022/08/06 01:08:36;;;;;;;1.00;0.80;;;26.70;70.80;;;;;;4993836;28;20535;-84
2022/08/06 01:11:03;;;;;;;0.93;0.80;;;26.70;71.00;;;;;;4995245;28;20479;-85
2022/08/06 01:13:31;;;;;;;0.90;0.67;;;26.70;71.00;;;;;;4997949;28;20576;-85
2022/08/06 01:16:10;;;;;;;1.00;0.80;;;26.70;71.00;;;;;;4997932;28;20463;-85
2022/08/06 01:18:44;;;;;;;1.20;0.90;;;26.70;72.10;;;;;;4997937;28;20535;-88
2022/08/06 01:21:24;;;;;;;1.00;0.83;;;26.60;71.30;;;;;;4997953;28;20527;-84
2022/08/06 01:24:12;;;;;;;1.20;0.80;;;26.60;71.20;;;;;;4998002;28;20861;-84
2022/08/06 01:26:47;;;;;;;1.10;0.90;;;26.70;71.10;;;;;;4997793;28;20510;-86
2022/08/06 01:29:20;;;;;;;1.00;0.80;;;26.60;71.40;;;;;;4997657;28;20546;-87
2022/08/06 01:31:52;;;;;;;1.00;0.90;;;26.70;71.30;;;;;;4997964;28;20571;-84
2022/08/06 01:34:24;;;;;;;1.00;0.70;;;26.60;71.40;;;;;;4997650;28;20468;-84
2022/08/06 01:36:59;;;;;;;1.10;0.90;;;26.70;71.50;;;;;;4997796;28;20539;-87
2022/08/06 01:39:30;;;;;;;1.00;0.80;;;26.60;71.20;;;;;;4997517;28;20484;-86
2022/08/06 01:41:58;;;;;;;1.00;0.80;;;26.60;72.20;;;;;;4997529;28;20441;-84
2022/08/06 01:44:31;;;;;;;1.30;0.80;;;26.60;71.60;;;;;;4997349;28;20480;-84
2022/08/06 01:47:01;;;;;;;1.33;0.97;;;26.60;71.50;;;;;;4997430;28;20440;-84
2022/08/06 01:49:31;;;;;;;1.03;0.90;;;26.60;71.50;;;;;;4997249;28;20472;-84
2022/08/06 01:52:00;;;;;;;1.93;1.20;;;26.60;71.70;;;;;;4997353;28;20914;-85
2022/08/06 01:54:30;;;;;;;1.10;0.87;;;26.60;71.60;;;;;;4997259;28;20872;-84
2022/08/06 01:56:58;;;;;;;0.97;0.80;;;26.60;71.40;;;;;;4997421;28;20448;-84
2022/08/06 01:59:32;;;;;;;1.10;0.80;;;26.60;71.40;;;;;;4997080;28;20557;-84
2022/08/06 02:02:01;;;;;;;1.40;0.87;;;26.60;71.40;;;;;;4997239;28;20491;-84
2022/08/06 02:04:33;;;;;;;0.97;0.70;;;26.60;71.40;;;;;;4997133;28;20455;-84
2022/08/06 02:07:04;;;;;;;0.90;0.70;;;26.60;71.90;;;;;;4996979;28;21022;-84
2022/08/06 02:09:32;;;;;;;1.10;0.73;;;26.60;71.70;;;;;;4997030;28;20530;-84
2022/08/06 02:12:04;;;;;;;1.00;0.80;;;26.60;72.00;;;;;;4997026;28;20479;-84
2022/08/06 02:14:35;;;;;;;1.00;0.70;;;26.60;71.80;;;;;;4996999;28;20444;-84
2022/08/06 02:17:04;;;;;;;1.00;0.80;;;26.60;72.10;;;;;;4996871;28;20471;-84
2022/08/06 02:19:33;;;;;;;1.00;0.70;;;26.60;71.90;;;;;;4996892;28;20533;-84
2022/08/06 02:22:02;;;;;;;0.90;0.70;;;26.50;71.80;;;;;;4996741;28;20452;-86
2022/08/06 02:24:31;;;;;;;1.00;0.80;;;26.50;72.00;;;;;;4996629;28;20468;-84
2022/08/06 02:27:00;;;;;;;1.00;0.80;;;26.50;71.80;;;;;;4996594;28;20472;-84
2022/08/06 02:29:29;;;;;;;1.00;0.80;;;26.50;72.00;;;;;;4996458;28;20543;-84
2022/08/06 02:31:57;;;;;;;1.00;0.80;;;26.50;71.90;;;;;;4996591;28;20499;-84
2022/08/06 02:34:24;;;;;;;3.93;1.00;;;26.50;72.20;;;;;;4996774;28;20515;-85
2022/08/06 02:36:58;;;;;;;0.97;0.70;;;26.50;72.10;;;;;;4996381;28;20543;-85
2022/08/06 02:39:27;;;;;;;0.93;0.80;;;26.60;72.20;;;;;;4996435;28;21305;-84
2022/08/06 02:42:02;;;;;;;1.00;0.90;;;26.50;72.10;;;;;;4996326;28;20447;-85
2022/08/06 02:44:40;;;;;;;1.00;0.90;;;26.50;72.10;;;;;;4996163;28;20463;-84
2022/08/06 02:47:13;;;;;;;1.30;0.80;;;26.50;72.00;;;;;;4996240;28;20928;-84
2022/08/06 02:49:44;;;;;;;0.90;0.70;;;26.50;72.00;;;;;;4996286;28;20536;-85
2022/08/06 02:52:18;;;;;;;1.10;0.80;;;26.50;72.40;;;;;;4996296;28;20484;-84
2022/08/06 02:54:52;;;;;;;0.90;0.70;;;26.50;72.30;;;;;;4996193;28;20795;-84
2022/08/06 02:57:23;;;;;;;0.90;0.77;;;26.50;72.30;;;;;;4996034;28;20437;-84
2022/08/06 02:59:54;;;;;;;1.60;0.70;;;26.50;72.30;;;;;;4996213;28;20826;-85
2022/08/06 03:02:26;;;;;;;1.00;0.80;;;26.50;72.30;;;;;;4996047;28;20483;-84
2022/08/06 03:04:55;;;;;;;1.10;0.90;;;26.50;72.10;;;;;;4996085;28;20520;-84
2022/08/06 03:07:25;;;;;;;1.20;0.90;;;26.50;72.00;;;;;;4995762;28;20472;-85
2022/08/06 03:09:53;;;;;;;1.30;0.80;;;26.50;72.20;;;;;;4995851;28;20531;-88
2022/08/06 03:12:21;;;;;;;0.90;0.73;;;26.50;72.30;;;;;;4995804;28;20484;-84
2022/08/06 03:14:50;;;;;;;1.00;0.80;;;26.50;72.30;;;;;;4995812;28;20991;-85
2022/08/06 03:17:19;;;;;;;0.90;0.60;;;26.50;72.30;;;;;;4995814;28;20447;-84
2022/08/06 03:19:48;;;;;;;0.90;0.70;;;26.50;72.50;;;;;;4995731;28;20452;-87
2022/08/06 03:22:17;;;;;;;0.90;0.70;;;26.50;72.30;;;;;;4995763;28;20448;-87
2022/08/06 03:24:46;;;;;;;1.07;0.83;;;26.50;72.40;;;;;;4995573;28;20531;-85
2022/08/06 03:27:16;;;;;;;1.30;0.90;;;26.50;72.30;;;;;;4995529;28;20955;-85
2022/08/06 03:29:44;;;;;;;0.97;0.77;;;26.50;72.40;;;;;;4995530;28;20564;-85
2022/08/06 03:32:13;;;;;;;1.13;0.70;;;26.50;72.30;;;;;;4995454;28;20523;-85
2022/08/06 03:34:41;;;;;;;1.00;0.87;;;26.50;72.00;;;;;;4995121;28;20481;-84
2022/08/06 03:37:10;;;;;;;0.90;0.70;;;26.50;72.20;;;;;;4995564;28;20547;-85
2022/08/06 03:39:40;;;;;;;1.10;0.80;;;26.50;72.30;;;;;;4995404;28;20469;-84
2022/08/06 03:42:08;;;;;;;1.10;0.90;;;26.50;72.10;;;;;;4995350;28;20880;-85
2022/08/06 03:44:35;;;;;;;1.00;0.70;;;26.50;72.10;;;;;;4995403;28;20868;-85
2022/08/06 03:47:06;;;;;;;1.00;0.70;;;26.50;72.40;;;;;;4995000;28;20532;-84
2022/08/06 03:49:37;;;;;;;1.00;0.70;;;26.50;72.30;;;;;;4995256;28;20479;-85
2022/08/06 03:52:06;;;;;;;1.20;1.10;;;26.50;72.20;;;;;;4995250;28;20535;-85
2022/08/06 03:54:43;;;;;;;1.20;0.87;;;26.50;72.40;;;;;;4995073;28;20567;-85
2022/08/06 03:57:14;;;;;;;1.00;0.80;;;26.50;72.10;;;;;;4995190;28;20535;-85
2022/08/06 03:59:43;;;;;;;1.10;0.83;;;26.50;72.20;;;;;;4994984;28;20555;-85
2022/08/06 04:02:12;;;;;;;1.00;0.90;;;26.50;72.30;;;;;;4995114;28;20652;-85
2022/08/06 04:04:41;;;;;;;0.90;0.70;;;26.50;72.30;;;;;;4994743;28;20864;-84
2022/08/06 04:07:08;;;;;;;0.90;0.70;;;26.50;72.20;;;;;;4993651;28;20503;-85
2022/08/06 04:09:36;;;;;;;1.60;0.80;;;26.50;72.30;;;;;;4994906;28;20444;-84
2022/08/06 04:12:04;;;;;;;1.97;0.80;;;26.50;72.30;;;;;;4994708;28;20447;-85
2022/08/06 04:14:32;;;;;;;1.10;0.87;;;26.50;72.20;;;;;;4994980;28;20526;-85
2022/08/06 04:17:01;;;;;;;1.10;0.80;;;26.50;72.10;;;;;;4993754;28;20445;-85
2022/08/06 04:19:29;;;;;;;1.00;0.70;;;26.50;72.10;;;;;;4994433;28;20527;-85
2022/08/06 04:21:56;;;;;;;1.17;0.80;;;26.50;72.00;;;;;;4994672;28;20531;-86
2022/08/06 04:24:23;;;;;;;0.93;0.73;;;26.50;71.90;;;;;;4994385;28;20777;-85
2022/08/06 04:26:54;;;;;;;1.00;0.90;;;26.50;72.10;;;;;;4994361;28;20492;-84
2022/08/06 04:29:22;;;;;;;1.33;0.90;;;26.50;72.10;;;;;;4994433;28;20464;-85
2022/08/06 04:31:51;;;;;;;1.20;0.83;;;26.50;72.10;;;;;;4994410;28;20999;-85
2022/08/06 04:34:23;;;;;;;1.20;1.00;;;26.50;71.90;;;;;;4994431;28;20920;-86
2022/08/06 04:36:51;;;;;;;1.13;0.97;;;26.50;72.00;;;;;;4994648;28;20436;-85
2022/08/06 04:39:19;;;;;;;1.00;0.90;;;26.50;72.10;;;;;;4994174;28;20540;-86
2022/08/06 04:41:46;;;;;;;0.90;0.60;;;26.50;72.10;;;;;;4994485;28;20473;-84
2022/08/06 04:44:14;;;;;;;1.00;0.80;;;26.50;72.10;;;;;;4994121;28;20547;-86
2022/08/06 04:46:43;;;;;;;1.00;0.83;;;26.50;72.00;;;;;;4993251;28;20523;-85
2022/08/06 04:49:10;;;;;;;1.13;0.70;;;26.50;72.00;;;;;;4994315;28;20451;-85
2022/08/06 04:51:38;;;;;;;1.00;0.80;;;26.50;71.90;;;;;;4994084;28;20476;-86
2022/08/06 04:54:05;;;;;;;1.00;0.90;;;26.50;71.90;;;;;;4994218;28;20488;-85
2022/08/06 04:56:32;;;;;;;1.10;0.80;;;26.50;72.00;;;;;;4994018;28;20445;-84
2022/08/06 04:58:59;;;;;;;1.00;0.90;;;26.50;71.90;;;;;;4994065;28;20555;-84
2022/08/06 05:01:27;;;;;;;1.00;0.80;;;26.50;72.00;;;;;;4994101;28;20446;-84
2022/08/06 05:03:54;;;;;;;0.90;0.70;;;26.40;71.90;;;;;;4994089;28;20538;-84
2022/08/06 05:06:26;;;;;;;1.00;0.70;;;26.50;72.00;;;;;;4993801;28;20484;-85
2022/08/06 05:08:58;;;;;;;1.10;1.00;;;26.50;71.90;;;;;;4993950;28;20535;-84
2022/08/06 05:11:29;;;;;;;1.03;0.83;;;26.50;72.00;;;;;;4994098;28;20446;-84
2022/08/06 05:13:59;;;;;;;1.00;0.80;;;26.40;71.90;;;;;;4994166;28;20907;-84
2022/08/06 05:16:31;;;;;;;0.90;0.70;;;26.50;72.00;;;;;;4994073;28;20455;-86
2022/08/06 05:19:00;;;;;;;1.00;0.80;;;26.50;72.00;;;;;;4993966;28;20436;-84
2022/08/06 05:21:32;;;;;;;1.10;0.83;;;26.40;71.90;;;;;;4993908;28;20535;-84
2022/08/06 05:24:00;;;;;;;1.00;0.80;;;26.40;71.90;;;;;;4993989;28;20449;-84
2022/08/06 05:26:27;;;;;;;1.00;0.80;;;26.50;71.90;;;;;;4993996;28;20887;-84
2022/08/06 05:28:54;;;;;;;1.00;0.83;;;26.40;71.90;;;;;;4994155;28;20544;-84
2022/08/06 05:31:32;;;;;;;1.00;0.87;;;26.40;71.90;;;;;;4993767;28;20448;-84
2022/08/06 05:33:59;;;;;;;1.13;1.00;;;26.50;71.90;;;;;;4993725;28;20494;-84
2022/08/06 05:36:26;;;;;;;1.67;0.90;;;26.50;72.00;;;;;;4993937;28;20527;-84
2022/08/06 05:38:52;;;;;;;1.00;0.80;;;26.50;71.90;;;;;;4993561;28;20936;-84
2022/08/06 05:41:20;;;;;;;2.10;0.90;;;26.40;71.90;;;;;;4993572;28;20547;-85
2022/08/06 05:43:46;;;;;;;1.00;0.83;;;26.40;71.80;;;;;;4993481;28;20480;-84
2022/08/06 05:46:17;;;;;;;1.00;0.80;;;26.50;71.90;;;;;;4993862;28;20444;-84
2022/08/06 05:48:50;;;;;;;1.00;0.80;;;26.40;71.80;;;;;;4993663;28;20540;-84
2022/08/06 05:51:24;;;;;;;1.00;0.80;;;26.50;71.90;;;;;;4993712;28;20445;-84
2022/08/06 05:53:58;;;;;;;0.90;0.80;;;26.40;71.90;;;;;;4993508;28;21058;-84
2022/08/06 05:56:30;;;;;;;1.63;0.90;;;26.50;71.90;;;;;;4993657;28;20483;-84
2022/08/06 05:59:02;;;;;;;0.90;0.80;;;26.50;71.90;;;;;;4997200;28;20499;-84
2022/08/06 06:01:31;;;;;;;1.10;0.90;;;26.40;71.80;;;;;;4999548;28;20443;-83
2022/08/06 06:03:59;;;;;;;1.20;0.80;;;26.40;71.90;;;;;;4980554;28;20437;-83
2022/08/06 06:06:27;;;;;;;1.03;0.93;;;26.40;71.80;;;;;;4998145;28;20941;-91
2022/08/06 06:08:55;;;;;;;1.00;0.73;;;26.40;71.90;;;;;;5010014;28;20459;-89
2022/08/06 06:11:23;;;;;;;3.40;1.13;;;26.50;71.50;;;;;;4997303;28;20539;-88
2022/08/06 06:13:50;;;;;;;1.40;1.03;;;26.40;70.30;;;;;;4997373;28;20534;-88
2022/08/06 06:16:28;;;;;;;1.00;0.80;;;26.40;68.70;;;;;;4997221;28;20491;-87
2022/08/06 06:19:15;;;;;;;1.00;0.80;;;26.40;69.00;;;;;;4997082;28;20452;-88
2022/08/06 06:21:51;;;;;;;1.70;1.10;;;26.40;68.40;;;;;;4997175;28;20936;-88
2022/08/06 06:24:23;;;;;;;1.77;0.80;;;26.40;68.30;;;;;;4997026;28;20527;-85
2022/08/06 06:26:56;;;;;;;0.90;0.70;;;26.40;68.40;;;;;;4996897;28;20445;-88
2022/08/06 06:29:36;;;;;;;1.10;0.97;;;26.40;70.40;;;;;;4996855;28;20465;-87
2022/08/06 06:32:09;;;;;;;1.30;0.90;;;26.50;70.00;;;;;;4996821;28;20444;-88
2022/08/06 06:34:50;;;;;;;1.70;1.10;;;26.40;69.50;;;;;;4996833;28;20519;-83
2022/08/06 06:37:25;;;;;;;2.07;1.17;;;26.50;70.00;;;;;;4996874;28;20441;-85
2022/08/06 06:40:03;;;;;;;1.60;1.20;;;26.40;70.40;;;;;;4996485;28;20928;-86
2022/08/06 06:42:41;;;;;;;1.10;0.90;;;26.40;70.50;;;;;;4996523;28;20471;-86
2022/08/06 06:45:13;;;;;;;2.83;1.60;;;26.40;70.30;;;;;;4996418;28;20490;-86
2022/08/06 06:47:45;;;;;;;3.17;1.20;;;26.40;68.90;;;;;;4996085;28;20444;-85
2022/08/06 06:50:19;;;;;;;3.50;1.13;;;26.40;66.50;;;;;;4996028;28;20452;-85
2022/08/06 06:52:50;;;;;;;2.17;1.13;;;26.30;64.20;;;;;;4996143;28;20531;-85
2022/08/06 06:55:22;;;;;;;2.63;1.13;;;26.30;64.00;;;;;;4996206;28;20575;-85
2022/08/06 06:57:53;;;;;;;2.00;1.27;;;26.30;63.40;;;;;;4996077;28;20445;-86
2022/08/06 07:00:20;;;;;;;2.13;1.23;;;26.20;62.90;;;;;;4996137;28;20444;-85
2022/08/06 07:02:49;;;;;;;3.23;1.30;;;26.20;62.70;;;;;;4996049;28;20531;-85
2022/08/06 07:05:19;;;;;;;4.20;1.73;;;26.30;63.30;;;;;;4995900;28;21033;-85
2022/08/06 07:07:48;;;;;;;3.70;1.50;;;26.20;64.20;;;;;;4995875;28;20556;-85
2022/08/06 07:10:16;;;;;;;1.23;1.13;;;26.20;64.60;;;;;;4995414;28;20454;-85
2022/08/06 07:12:45;;;;;;;2.80;1.60;;;26.20;64.30;;;;;;4996016;28;20480;-84
2022/08/06 07:15:15;;;;;;;3.00;1.40;;;26.20;63.60;;;;;;4995856;28;20495;-84
2022/08/06 07:17:43;;;;;;;1.53;0.93;;;26.10;63.40;;;;;;4995859;28;20440;-85
2022/08/06 07:20:13;;;;;;;1.40;0.90;;;26.10;63.40;;;;;;4995749;28;20962;-84
2022/08/06 07:22:44;;;;;;;2.33;1.13;;;26.10;63.00;;;;;;4995377;28;20499;-85
2022/08/06 07:25:14;;;;;;;2.03;1.00;;;26.10;62.80;;;;;;4976361;28;20516;-84
2022/08/06 07:27:45;;;;;;;4.47;1.20;;;26.10;63.50;;;;;;4977241;28;20481;-84
2022/08/06 07:30:13;;;;;;;2.70;1.37;;;26.10;64.00;;;;;;4995481;28;20534;-85
2022/08/06 07:32:42;;;;;;;2.13;1.07;;;26.10;64.30;;;;;;4995553;28;20437;-85
2022/08/06 07:35:11;;;;;;;1.70;1.00;;;26.10;64.00;;;;;;4995418;28;20489;-85
2022/08/06 07:37:43;;;;;;;1.40;1.00;;;26.10;64.10;;;;;;4995248;28;20529;-85
2022/08/06 07:40:26;;;;;;;1.40;0.80;;;26.10;64.00;;;;;;4995714;28;20994;-85
2022/08/06 07:43:00;;;;;;;1.63;0.80;;;26.10;63.90;;;;;;4994372;28;20478;-85
2022/08/06 07:45:30;;;;;;;2.07;0.90;;;26.10;63.90;;;;;;4994790;28;20452;-85
2022/08/06 07:47:59;;;;;;;1.83;0.77;;;26.10;64.00;;;;;;4994492;28;20831;-85
2022/08/06 07:50:27;;;;;;;2.40;1.00;;;26.10;63.90;;;;;;4994301;28;20535;-85
2022/08/06 07:52:56;;;;;;;1.20;0.87;;;26.10;63.50;;;;;;4993804;28;20527;-85
2022/08/06 07:55:25;;;;;;;3.77;0.80;;;26.10;63.80;;;;;;4994049;28;20500;-85
2022/08/06 07:57:52;;;;;;;3.30;1.33;;;26.10;63.80;;;;;;4994683;28;20475;-85
2022/08/06 08:00:19;;;;;;;2.90;0.90;;;26.10;64.00;;;;;;4995116;28;20450;-85
2022/08/06 08:08:13;;;;;;;1.20;0.80;;;26.10;63.20;;;;;;4995056;28;20919;-85
2022/08/06 08:10:41;;;;;;;3.03;0.80;;;26.10;63.20;;;;;;4994820;28;20448;-85
2022/08/06 08:13:08;;;;;;;1.10;0.70;;;26.10;63.10;;;;;;4994576;28;20448;-84
2022/08/06 08:15:35;;;;;;;2.60;0.90;;;26.10;63.00;;;;;;4994194;28;20995;-85
2022/08/06 08:18:03;;;;;;;1.17;0.80;;;26.10;63.30;;;;;;4994154;28;20466;-85
2022/08/06 08:20:32;;;;;;;0.90;0.70;;;26.10;62.80;;;;;;4993973;28;20445;-84
2022/08/06 08:22:59;;;;;;;2.40;0.90;;;26.10;61.70;;;;;;4994548;28;20444;-85
2022/08/06 08:25:27;;;;;;;2.80;1.10;;;26.10;61.20;;;;;;4994462;28;20490;-85
2022/08/06 08:27:53;;;;;;;4.00;0.80;;;26.10;60.70;;;;;;4994194;28;20845;-85
2022/08/06 08:30:20;;;;;;;2.07;0.80;;;26.10;60.10;;;;;;4994244;28;20539;-86
2022/08/06 08:32:47;;;;;;;1.03;0.70;;;26.10;60.20;;;;;;4994155;28;20528;-85
2022/08/06 08:35:15;;;;;;;1.73;0.80;;;26.10;60.50;;;;;;4993451;28;20488;-85
2022/08/06 08:37:42;;;;;;;1.73;0.80;;;26.10;60.60;;;;;;4993296;28;20456;-85
2022/08/06 08:40:10;;;;;;;1.33;0.73;;;26.10;60.10;;;;;;4993273;28;20444;-85
2022/08/06 08:42:43;;;;;;;2.20;0.90;;;26.10;59.90;;;;;;4993007;28;20510;-85
2022/08/06 08:45:11;;;;;;;1.03;0.80;;;26.10;59.90;;;;;;4993052;28;20455;-85
2022/08/06 08:47:45;;;;;;;2.50;1.00;;;26.10;60.00;;;;;;4992971;28;20440;-85
2022/08/06 08:50:12;;;;;;;3.63;0.90;;;26.10;60.30;;;;;;4993328;28;20452;-85
2022/08/06 08:52:44;;;;;;;2.03;0.73;;;26.10;59.90;;;;;;4994018;28;20547;-84
2022/08/06 08:55:15;;;;;;;1.10;0.80;;;26.10;59.80;;;;;;4993829;28;20526;-85
2022/08/06 08:57:44;;;;;;;1.10;0.70;;;26.10;59.80;;;;;;4993868;28;20440;-85
2022/08/06 09:00:11;;;;;;;1.27;0.77;;;26.10;59.60;;;;;;4993881;28;20539;-85
2022/08/06 09:02:39;;;;;;;2.17;0.83;;;26.10;59.30;;;;;;4993848;28;20462;-84
2022/08/06 09:05:07;;;;;;;1.87;0.80;;;26.00;58.70;;;;;;4994150;28;20436;-85
2022/08/06 09:07:34;;;;;;;2.50;0.90;;;26.00;59.30;;;;;;4993675;28;20451;-84
2022/08/06 09:10:02;;;;;;;1.33;0.70;;;26.10;59.20;;;;;;4993900;28;20444;-86
2022/08/06 09:12:29;;;;;;;1.10;0.90;;;26.10;59.90;;;;;;4993356;28;20445;-85
2022/08/06 09:14:57;;;;;;;1.00;0.80;;;26.10;61.00;;;;;;4994027;28;20691;-86
2022/08/06 09:17:25;;;;;;;1.90;0.80;;;26.10;61.90;;;;;;4993621;28;20487;-85
2022/08/06 09:19:52;;;;;;;1.47;0.90;;;26.10;62.60;;;;;;4993974;28;20812;-84
2022/08/06 09:22:19;;;;;;;2.40;1.10;;;26.10;62.80;;;;;;4990656;28;20441;-86
2022/08/06 09:24:46;;;;;;;2.80;1.17;;;26.10;63.60;;;;;;4974398;28;20539;-84
2022/08/06 09:27:15;;;;;;;1.53;1.13;;;26.20;64.40;;;;;;4974357;28;20540;-84
2022/08/06 09:29:50;;;;;;;2.60;1.47;;;26.20;64.80;;;;;;4974355;28;20984;-83
2022/08/06 09:32:41;;;;;;;4.40;1.30;;;26.20;65.20;;;;;;4975951;28;20852;-87
2022/08/06 09:35:19;;;;;;;4.33;1.10;;;26.20;65.40;;;;;;4978492;28;20571;-86
2022/08/06 09:37:46;;;;;;;2.67;1.30;;;26.20;65.60;;;;;;4978452;28;20524;-90
2022/08/06 09:40:16;;;;;;;4.20;1.40;;;26.20;65.80;;;;;;4978649;28;20543;-89
2022/08/06 18:45:56;;;;;;;0.90;0.70;;;26.20;66.60;;;;;;4967544;28;20465;-83
2022/08/06 18:48:23;;;;;;;1.23;0.90;;;26.20;66.50;;;;;;4977065;28;20792;-84
2022/08/06 18:50:49;;;;;;;1.17;0.80;;;26.30;66.30;;;;;;4976760;28;20933;-84
2022/08/06 18:53:16;;;;;;;1.00;0.70;;;26.30;66.10;;;;;;4976951;28;20860;-84
2022/08/06 18:55:43;;;;;;;0.97;0.70;;;26.30;66.10;;;;;;4976663;28;20533;-84
2022/08/06 18:58:11;;;;;;;1.00;0.80;;;26.30;66.10;;;;;;4976715;28;20442;-83
2022/08/06 19:00:40;;;;;;;0.90;0.60;;;26.30;66.00;;;;;;4976761;28;20536;-84
2022/08/06 19:03:09;;;;;;;0.90;0.70;;;26.30;65.80;;;;;;4976618;28;20449;-84
2022/08/06 19:05:36;;;;;;;1.00;0.90;;;26.40;65.90;;;;;;4975453;28;20433;-83
2022/08/06 19:08:03;;;;;;;1.00;0.70;;;26.40;65.90;;;;;;4976602;28;20528;-87
2022/08/06 19:10:30;;;;;;;1.10;0.70;;;26.40;66.00;;;;;;4976493;28;20937;-84
2022/08/06 19:12:58;;;;;;;1.30;1.00;;;26.40;65.90;;;;;;4976564;28;20446;-83
2022/08/06 19:15:25;;;;;;;1.30;0.80;;;26.40;65.80;;;;;;4976305;28;20571;-84
2022/08/06 19:17:52;;;;;;;1.90;0.70;;;26.40;65.90;;;;;;4976145;28;20457;-84
2022/08/06 19:20:20;;;;;;;0.90;0.70;;;26.40;65.80;;;;;;4976313;28;20532;-84
2022/08/06 19:22:48;;;;;;;1.00;0.80;;;26.40;65.80;;;;;;4976420;28;20536;-84
2022/08/06 19:25:14;;;;;;;1.00;0.80;;;26.40;65.90;;;;;;4976233;28;20458;-84
2022/08/06 19:27:42;;;;;;;0.90;0.70;;;26.30;65.70;;;;;;4976138;28;20545;-84
2022/08/06 19:30:10;;;;;;;1.07;0.80;;;26.40;65.70;;;;;;4976341;28;20481;-84
2022/08/06 19:32:37;;;;;;;0.97;0.77;;;26.40;65.60;;;;;;4976165;28;20473;-83
2022/08/06 19:35:06;;;;;;;1.00;0.80;;;26.30;65.50;;;;;;4976117;28;20873;-89
2022/08/06 19:37:35;;;;;;;1.10;0.90;;;26.40;65.50;;;;;;4976161;28;20441;-88
